Wetterdaten: Woche 19.05.14 - 25.05.14 (KW21)
Datum Zeit Temp. A. Feuchte A. Luftdruck Regen Wind Richtung Taupunkt Windchill Windben
19.05.2014 00:00 12,0 C 83 % 1013,8 hPa 0,0 l/m 0,0 km/h N 9,2 C 12,0 C 0,4 km/h
19.05.2014 01:00 11,3 C 83 % 1013,4 hPa 0,0 l/m 0,0 km/h N 8,5 C 11,3 C 0,0 km/h
19.05.2014 02:00 10,4 C 82 % 1013,2 hPa 0,0 l/m 0,2 km/h N 7,5 C 10,4 C 1,6 km/h
19.05.2014 03:00 9,3 C 83 % 1013,0 hPa 0,0 l/m 0,0 km/h N 6,6 C 9,3 C 0,0 km/h
19.05.2014 04:00 8,0 C 83 % 1012,9 hPa 0,0 l/m 0,0 km/h N 5,3 C 8,0 C 0,0 km/h
19.05.2014 05:00 7,2 C 83 % 1013,0 hPa 0,0 l/m 0,0 km/h N 4,5 C 7,2 C 0,0 km/h
19.05.2014 06:00 8,6 C 80 % 1013,1 hPa 0,0 l/m 0,4 km/h N 5,4 C 8,6 C 2,0 km/h
19.05.2014 07:00 9,8 C 79 % 1013,3 hPa 0,0 l/m 0,3 km/h N 6,3 C 9,8 C 4,0 km/h
19.05.2014 08:00 10,6 C 78 % 1013,8 hPa 0,0 l/m 0,4 km/h N 6,8 C 10,6 C 4,0 km/h
19.05.2014 09:00 11,1 C 77 % 1014,0 hPa 0,0 l/m 0,5 km/h N 7,3 C 11,1 C 4,4 km/h
19.05.2014 10:00 12,2 C 77 % 1014,2 hPa 0,0 l/m 1,7 km/h N 8,3 C 12,2 C 8,9 km/h
19.05.2014 11:00 14,2 C 81 % 1014,1 hPa 0,0 l/m 1,6 km/h N 11,0 C 14,2 C 6,8 km/h
19.05.2014 12:00 18,1 C 78 % 1013,5 hPa 0,0 l/m 3,5 km/h N 14,1 C 18,1 C 13,7 km/h
19.05.2014 13:00 20,8 C 67 % 1012,9 hPa 0,0 l/m 5,6 km/h N 14,5 C 20,7 C 16,9 km/h
19.05.2014 14:00 22,2 C 59 % 1012,4 hPa 0,0 l/m 7,8 km/h N 13,8 C 21,7 C 22,1 km/h
19.05.2014 15:00 22,4 C 58 % 1012,3 hPa 0,0 l/m 6,7 km/h N 13,7 C 22,1 C 20,9 km/h
19.05.2014 16:00 22,0 C 59 % 1012,1 hPa 0,0 l/m 6,7 km/h N 13,5 C 21,7 C 19,7 km/h
19.05.2014 17:00 22,2 C 58 % 1011,9 hPa 0,0 l/m 6,1 km/h N 13,5 C 22,2 C 18,1 km/h
19.05.2014 18:00 22,3 C 57 % 1011,6 hPa 0,0 l/m 6,2 km/h N 13,2 C 22,2 C 19,7 km/h
19.05.2014 19:00 21,4 C 60 % 1011,6 hPa 0,0 l/m 2,8 km/h N 13,3 C 21,4 C 12,1 km/h
19.05.2014 20:00 19,5 C 65 % 1012,1 hPa 0,0 l/m 3,1 km/h N 12,8 C 19,5 C 11,3 km/h
19.05.2014 21:00 17,8 C 70 % 1012,6 hPa 0,0 l/m 2,1 km/h N 12,2 C 17,8 C 8,9 km/h
19.05.2014 22:00 16,5 C 74 % 1013,0 hPa 0,0 l/m 1,7 km/h N 11,8 C 16,5 C 6,8 km/h
19.05.2014 23:00 15,1 C 76 % 1013,0 hPa 0,0 l/m 0,7 km/h N 10,9 C 15,1 C 5,2 km/h
20.05.2014 00:00 13,1 C 81 % 1013,1 hPa 0,0 l/m 0,0 km/h N 9,8 C 13,1 C 0,8 km/h
20.05.2014 01:00 11,8 C 83 % 1012,9 hPa 0,0 l/m 0,0 km/h N 9,0 C 11,8 C 0,0 km/h
20.05.2014 02:00 10,5 C 84 % 1012,8 hPa 0,0 l/m 0,0 km/h N 7,9 C 10,5 C 0,0 km/h
20.05.2014 03:00 9,3 C 84 % 1013,0 hPa 0,0 l/m 0,0 km/h N 6,8 C 9,3 C 0,0 km/h
20.05.2014 04:00 8,5 C 84 % 1013,1 hPa 0,0 l/m 0,0 km/h N 6,0 C 8,5 C 0,4 km/h
20.05.2014 05:00 7,8 C 83 % 1013,3 hPa 0,0 l/m 0,0 km/h N 5,1 C 7,8 C 0,0 km/h
20.05.2014 06:00 8,2 C 82 % 1013,6 hPa 0,0 l/m 0,0 km/h N 5,2 C 8,2 C 0,0 km/h
20.05.2014 07:00 10,8 C 78 % 1013,7 hPa 0,0 l/m 0,3 km/h N 7,1 C 10,8 C 2,4 km/h
20.05.2014 08:00 13,8 C 80 % 1014,0 hPa 0,0 l/m 0,8 km/h N 10,5 C 13,8 C 4,8 km/h
20.05.2014 09:00 17,2 C 75 % 1014,2 hPa 0,0 l/m 1,0 km/h N 12,7 C 17,2 C 4,8 km/h
20.05.2014 10:00 19,9 C 68 % 1014,3 hPa 0,0 l/m 1,0 km/h N 13,8 C 19,9 C 7,6 km/h
20.05.2014 11:00 21,9 C 58 % 1014,4 hPa 0,0 l/m 2,1 km/h N 13,3 C 21,9 C 10,1 km/h
20.05.2014 12:00 23,4 C 54 % 1014,4 hPa 0,0 l/m 2,8 km/h N 13,6 C 23,4 C 10,9 km/h
20.05.2014 13:00 24,5 C 51 % 1014,3 hPa 0,0 l/m 2,8 km/h N 13,5 C 24,5 C 14,9 km/h
20.05.2014 14:00 25,1 C 47 % 1014,1 hPa 0,0 l/m 4,0 km/h N 12,9 C 25,1 C 16,1 km/h
20.05.2014 15:00 24,8 C 41 % 1014,1 hPa 0,0 l/m 6,1 km/h N 10,6 C 24,8 C 18,1 km/h
20.05.2014 16:00 24,3 C 42 % 1014,0 hPa 0,0 l/m 4,0 km/h N 10,4 C 24,3 C 12,5 km/h
20.05.2014 17:00 24,5 C 45 % 1014,1 hPa 0,0 l/m 4,6 km/h N 11,7 C 24,5 C 17,7 km/h
20.05.2014 18:00 24,2 C 47 % 1014,2 hPa 0,0 l/m 4,5 km/h N 12,3 C 24,2 C 17,3 km/h
20.05.2014 19:00 22,7 C 51 % 1014,2 hPa 0,0 l/m 3,6 km/h N 12,0 C 22,7 C 11,3 km/h
20.05.2014 20:00 20,7 C 59 % 1014,3 hPa 0,0 l/m 0,3 km/h N 12,3 C 20,7 C 2,0 km/h
20.05.2014 21:00 17,9 C 67 % 1014,6 hPa 0,0 l/m 0,3 km/h N 11,7 C 17,9 C 2,8 km/h
20.05.2014 22:00 16,8 C 70 % 1014,9 hPa 0,0 l/m 0,2 km/h N 11,4 C 16,8 C 3,6 km/h
20.05.2014 23:00 15,6 C 74 % 1015,1 hPa 0,0 l/m 0,0 km/h N 10,9 C 15,6 C 0,0 km/h
21.05.2014 00:00 13,8 C 79 % 1015,3 hPa 0,0 l/m 0,0 km/h N 10,2 C 13,8 C 0,0 km/h
21.05.2014 01:00 12,6 C 82 % 1015,2 hPa 0,0 l/m 0,0 km/h N 9,6 C 12,6 C 0,0 km/h
21.05.2014 02:00 11,6 C 84 % 1015,4 hPa 0,0 l/m 0,0 km/h N 9,0 C 11,6 C 0,0 km/h
21.05.2014 03:00 10,8 C 84 % 1015,5 hPa 0,0 l/m 0,0 km/h N 8,2 C 10,8 C 0,0 km/h
21.05.2014 04:00 9,9 C 84 % 1015,7 hPa 0,0 l/m 0,0 km/h N 7,3 C 9,9 C 0,0 km/h
21.05.2014 05:00 9,4 C 83 % 1016,1 hPa 0,0 l/m 0,0 km/h N 6,6 C 9,4 C 0,0 km/h
21.05.2014 06:00 9,7 C 81 % 1016,6 hPa 0,0 l/m 0,0 km/h N 6,6 C 9,7 C 0,0 km/h
21.05.2014 07:00 12,2 C 78 % 1016,6 hPa 0,0 l/m 0,2 km/h N 8,4 C 12,2 C 3,2 km/h
21.05.2014 08:00 15,9 C 80 % 1016,9 hPa 0,0 l/m 0,4 km/h N 12,4 C 15,9 C 4,0 km/h
21.05.2014 09:00 19,9 C 70 % 1016,8 hPa 0,0 l/m 2,5 km/h N 14,3 C 19,9 C 12,9 km/h
21.05.2014 10:00 21,5 C 63 % 1016,8 hPa 0,0 l/m 4,2 km/h N 14,0 C 21,5 C 16,1 km/h
21.05.2014 11:00 22,8 C 61 % 1016,6 hPa 0,0 l/m 5,4 km/h N 14,7 C 22,8 C 19,7 km/h
21.05.2014 12:00 23,9 C 59 % 1016,5 hPa 0,0 l/m 5,8 km/h N 15,2 C 23,9 C 18,5 km/h
21.05.2014 13:00 24,6 C 54 % 1016,2 hPa 0,0 l/m 7,3 km/h N 14,5 C 24,4 C 18,1 km/h
21.05.2014 14:00 25,6 C 51 % 1015,9 hPa 0,0 l/m 6,3 km/h N 14,7 C 25,5 C 20,9 km/h
21.05.2014 15:00 25,3 C 50 % 1015,5 hPa 0,0 l/m 7,7 km/h N 14,1 C 24,9 C 22,1 km/h
21.05.2014 16:00 25,0 C 51 % 1015,3 hPa 0,0 l/m 9,0 km/h N 14,1 C 24,4 C 22,9 km/h
21.05.2014 17:00 25,1 C 50 % 1015,0 hPa 0,0 l/m 10,0 km/h N 13,9 C 24,2 C 26,1 km/h
21.05.2014 18:00 25,1 C 49 % 1014,7 hPa 0,0 l/m 9,9 km/h N 13,7 C 24,3 C 23,7 km/h
21.05.2014 19:00 24,3 C 53 % 1014,3 hPa 0,0 l/m 5,8 km/h N 14,1 C 24,2 C 18,1 km/h
21.05.2014 20:00 22,6 C 57 % 1014,0 hPa 0,0 l/m 4,4 km/h N 13,7 C 22,6 C 13,3 km/h
21.05.2014 21:00 21,0 C 63 % 1014,0 hPa 0,0 l/m 2,2 km/h N 13,6 C 21,0 C 8,0 km/h
21.05.2014 22:00 19,7 C 66 % 1014,1 hPa 0,0 l/m 0,4 km/h N 13,1 C 19,7 C 4,4 km/h
21.05.2014 23:00 17,6 C 73 % 1014,1 hPa 0,0 l/m 0,0 km/h N 12,6 C 17,6 C 0,4 km/h
22.05.2014 00:00 15,8 C 78 % 1013,8 hPa 0,0 l/m 0,0 km/h N 12,0 C 15,8 C 0,0 km/h
22.05.2014 01:00 15,0 C 82 % 1013,4 hPa 0,0 l/m 0,1 km/h N 11,9 C 15,0 C 0,8 km/h
22.05.2014 02:00 15,8 C 82 % 1012,6 hPa 0,0 l/m 0,4 km/h N 12,8 C 15,8 C 3,2 km/h
22.05.2014 03:00 16,4 C 81 % 1012,2 hPa 0,0 l/m 1,8 km/h N 13,1 C 16,4 C 9,3 km/h
22.05.2014 04:00 16,1 C 80 % 1012,2 hPa 0,0 l/m 0,3 km/h N 12,6 C 16,1 C 4,0 km/h
22.05.2014 05:00 15,3 C 83 % 1012,1 hPa 0,0 l/m 1,3 km/h N 12,4 C 15,3 C 5,6 km/h
22.05.2014 06:00 15,7 C 83 % 1012,1 hPa 0,0 l/m 0,9 km/h N 12,8 C 15,7 C 4,8 km/h
22.05.2014 07:00 17,1 C 79 % 1012,2 hPa 0,0 l/m 2,7 km/h N 13,4 C 17,1 C 9,7 km/h
22.05.2014 08:00 20,5 C 67 % 1012,0 hPa 0,0 l/m 6,0 km/h N 14,2 C 20,5 C 15,3 km/h
22.05.2014 09:00 22,4 C 62 % 1012,1 hPa 0,0 l/m 6,1 km/h N 14,8 C 22,3 C 18,1 km/h
22.05.2014 10:00 23,9 C 59 % 1012,0 hPa 0,0 l/m 6,0 km/h N 15,4 C 23,9 C 18,5 km/h
22.05.2014 11:00 24,6 C 56 % 1012,0 hPa 0,0 l/m 10,4 km/h N 15,3 C 23,7 C 24,1 km/h
22.05.2014 12:00 25,3 C 55 % 1012,0 hPa 0,0 l/m 9,9 km/h N 15,6 C 24,5 C 23,7 km/h
22.05.2014 13:00 26,4 C 51 % 1011,9 hPa 0,0 l/m 9,3 km/h N 15,5 C 25,9 C 22,9 km/h
22.05.2014 14:00 26,9 C 52 % 1011,5 hPa 0,0 l/m 8,8 km/h N 16,3 C 26,5 C 25,0 km/h
22.05.2014 15:00 27,0 C 53 % 1011,0 hPa 0,0 l/m 7,4 km/h N 16,5 C 26,8 C 20,1 km/h
22.05.2014 16:00 26,8 C 53 % 1010,7 hPa 0,0 l/m 8,2 km/h N 16,3 C 26,4 C 24,5 km/h
22.05.2014 17:00 26,7 C 53 % 1010,2 hPa 0,0 l/m 7,7 km/h N 16,4 C 26,4 C 22,1 km/h
22.05.2014 18:00 26,5 C 53 % 1009,9 hPa 0,0 l/m 8,7 km/h N 16,0 C 26,0 C 21,7 km/h
22.05.2014 19:00 25,5 C 58 % 1009,8 hPa 0,0 l/m 3,3 km/h N 16,6 C 25,5 C 14,1 km/h
22.05.2014 20:00 23,7 C 61 % 1009,7 hPa 0,0 l/m 3,0 km/h N 15,8 C 23,7 C 12,9 km/h
22.05.2014 21:00 22,3 C 63 % 1010,1 hPa 0,0 l/m 2,3 km/h N 14,9 C 22,3 C 8,9 km/h
22.05.2014 22:00 21,3 C 66 % 1010,2 hPa 0,0 l/m 2,5 km/h N 14,5 C 21,3 C 8,5 km/h
22.05.2014 23:00 20,4 C 68 % 1009,9 hPa 0,0 l/m 1,2 km/h N 14,3 C 20,4 C 6,9 km/h
23.05.2014 00:00 19,6 C 71 % 1009,6 hPa 0,0 l/m 2,0 km/h N 14,1 C 19,6 C 6,8 km/h
23.05.2014 01:00 18,8 C 73 % 1009,4 hPa 0,0 l/m 0,2 km/h N 13,9 C 18,8 C 2,8 km/h
23.05.2014 02:00 17,3 C 77 % 1009,0 hPa 0,0 l/m 0,0 km/h N 13,2 C 17,3 C 0,0 km/h
23.05.2014 03:00 16,3 C 81 % 1008,7 hPa 0,0 l/m 0,0 km/h N 12,9 C 16,3 C 0,4 km/h
23.05.2014 04:00 16,1 C 83 % 1008,3 hPa 0,0 l/m 0,4 km/h N 13,2 C 16,1 C 4,0 km/h
23.05.2014 05:00 16,1 C 83 % 1008,1 hPa 0,0 l/m 0,1 km/h N 13,2 C 16,1 C 1,6 km/h
23.05.2014 06:00 15,9 C 83 % 1008,1 hPa 0,0 l/m 0,0 km/h N 13,0 C 15,9 C 0,0 km/h
23.05.2014 07:00 17,1 C 83 % 1008,2 hPa 0,0 l/m 0,4 km/h N 14,1 C 17,1 C 2,8 km/h
23.05.2014 08:00 19,5 C 78 % 1008,3 hPa 0,0 l/m 3,3 km/h N 15,5 C 19,5 C 10,5 km/h
23.05.2014 09:00 22,2 C 71 % 1008,3 hPa 0,0 l/m 2,6 km/h N 16,6 C 22,2 C 10,0 km/h
23.05.2014 10:00 23,4 C 67 % 1008,2 hPa 0,0 l/m 2,8 km/h N 16,9 C 23,4 C 9,7 km/h
23.05.2014 11:00 25,9 C 60 % 1008,3 hPa 0,0 l/m 7,4 km/h N 17,3 C 25,6 C 20,9 km/h
23.05.2014 12:00 26,6 C 58 % 1008,2 hPa 0,0 l/m 9,4 km/h N 17,6 C 26,1 C 24,9 km/h
23.05.2014 13:00 27,7 C 53 % 1008,0 hPa 0,0 l/m 12,2 km/h N 17,1 C 26,8 C 29,8 km/h
23.05.2014 14:00 28,4 C 52 % 1007,9 hPa 0,0 l/m 15,1 km/h N 17,4 C 27,5 C 35,8 km/h
23.05.2014 15:00 28,5 C 52 % 1007,8 hPa 0,0 l/m 13,5 km/h N 17,6 C 27,7 C 31,0 km/h
23.05.2014 16:00 28,3 C 51 % 1007,5 hPa 0,0 l/m 12,1 km/h N 17,3 C 27,6 C 29,4 km/h
23.05.2014 17:00 27,9 C 51 % 1007,6 hPa 0,0 l/m 10,9 km/h N 16,9 C 27,3 C 26,5 km/h
23.05.2014 18:00 27,5 C 52 % 1007,7 hPa 0,0 l/m 9,8 km/h N 16,6 C 26,9 C 24,1 km/h
23.05.2014 19:00 26,0 C 55 % 1008,1 hPa 0,0 l/m 6,4 km/h N 16,3 C 25,9 C 19,7 km/h
23.05.2014 20:00 24,3 C 61 % 1008,9 hPa 0,0 l/m 1,4 km/h N 16,2 C 24,3 C 6,8 km/h
23.05.2014 21:00 21,4 C 70 % 1009,6 hPa 0,0 l/m 0,6 km/h N 15,6 C 21,4 C 4,0 km/h
23.05.2014 22:00 19,5 C 75 % 1010,1 hPa 0,0 l/m 0,8 km/h N 15,0 C 19,5 C 5,6 km/h
23.05.2014 23:00 18,7 C 77 % 1010,3 hPa 0,0 l/m 1,5 km/h N 14,5 C 18,7 C 6,8 km/h
24.05.2014 00:00 18,2 C 77 % 1010,4 hPa 0,0 l/m 0,9 km/h N 14,0 C 18,2 C 5,2 km/h
24.05.2014 01:00 17,8 C 78 % 1010,3 hPa 2,1 l/m 1,0 km/h N 13,8 C 17,8 C 7,6 km/h
24.05.2014 02:00 17,1 C 82 % 1010,6 hPa 0,0 l/m 0,7 km/h N 14,1 C 17,1 C 4,8 km/h
24.05.2014 03:00 16,5 C 83 % 1010,2 hPa 0,0 l/m 0,1 km/h N 13,6 C 16,5 C 0,8 km/h
24.05.2014 04:00 16,1 C 82 % 1009,8 hPa 0,3 l/m 0,3 km/h N 13,0 C 16,1 C 4,0 km/h
24.05.2014 05:00 16,2 C 80 % 1009,6 hPa 0,3 l/m 0,2 km/h N 12,8 C 16,2 C 1,6 km/h
24.05.2014 06:00 16,0 C 80 % 1010,2 hPa 0,0 l/m 0,0 km/h N 12,6 C 16,0 C 0,0 km/h
24.05.2014 07:00 16,9 C 79 % 1010,4 hPa 0,0 l/m 0,0 km/h N 13,1 C 16,9 C 0,4 km/h
24.05.2014 08:00 18,5 C 80 % 1010,6 hPa 0,0 l/m 0,5 km/h N 15,0 C 18,5 C 4,0 km/h
24.05.2014 09:00 21,3 C 77 % 1010,8 hPa 0,0 l/m 1,5 km/h N 17,1 C 21,3 C 6,4 km/h
24.05.2014 10:00 23,1 C 68 % 1011,0 hPa 0,0 l/m 6,9 km/h N 16,9 C 22,9 C 20,9 km/h
24.05.2014 11:00 24,6 C 62 % 1010,8 hPa 0,0 l/m 7,8 km/h N 16,8 C 24,2 C 22,1 km/h
24.05.2014 12:00 25,8 C 57 % 1010,5 hPa 0,0 l/m 8,3 km/h N 16,6 C 25,3 C 24,5 km/h
24.05.2014 13:00 26,7 C 53 % 1010,2 hPa 0,0 l/m 6,0 km/h N 16,3 C 26,6 C 16,1 km/h
24.05.2014 14:00 27,1 C 50 % 1010,2 hPa 0,0 l/m 2,8 km/h N 15,6 C 27,1 C 11,7 km/h
24.05.2014 15:00 21,3 C 62 % 1011,2 hPa 0,5 l/m 8,1 km/h N 13,3 C 20,4 C 29,8 km/h
24.05.2014 16:00 16,8 C 82 % 1011,8 hPa 6,2 l/m 1,1 km/h N 13,7 C 16,8 C 8,4 km/h
24.05.2014 17:00 19,0 C 81 % 1011,6 hPa 0,0 l/m 1,9 km/h N 15,6 C 19,0 C 7,2 km/h
24.05.2014 18:00 22,5 C 77 % 1011,6 hPa 0,0 l/m 0,8 km/h N 18,2 C 22,5 C 5,2 km/h
24.05.2014 19:00 23,4 C 70 % 1012,0 hPa 0,0 l/m 0,4 km/h N 17,6 C 23,4 C 2,8 km/h
24.05.2014 20:00 20,5 C 77 % 1013,2 hPa 0,0 l/m 1,0 km/h N 16,3 C 20,5 C 5,6 km/h
24.05.2014 21:00 18,8 C 80 % 1014,0 hPa 0,0 l/m 0,6 km/h N 15,3 C 18,8 C 4,8 km/h
24.05.2014 22:00 19,2 C 73 % 1014,4 hPa 0,0 l/m 4,5 km/h N 14,2 C 19,1 C 18,1 km/h
24.05.2014 23:00 20,1 C 68 % 1014,7 hPa 0,0 l/m 8,8 km/h N 14,1 C 19,2 C 24,9 km/h
25.05.2014 00:00 19,5 C 72 % 1015,3 hPa 0,0 l/m 8,1 km/h N 14,3 C 18,8 C 21,3 km/h
25.05.2014 01:00 18,8 C 76 % 1016,1 hPa 0,0 l/m 5,3 km/h N 14,3 C 18,8 C 16,5 km/h
25.05.2014 02:00 18,3 C 77 % 1016,5 hPa 0,0 l/m 1,2 km/h N 14,1 C 18,3 C 7,6 km/h
25.05.2014 03:00 17,9 C 76 % 1016,9 hPa 0,0 l/m 1,8 km/h N 13,5 C 17,9 C 10,4 km/h
25.05.2014 04:00 18,0 C 74 % 1017,3 hPa 0,0 l/m 2,7 km/h N 13,3 C 18,0 C 11,3 km/h
25.05.2014 05:00 17,5 C 74 % 1017,6 hPa 0,0 l/m 5,4 km/h N 12,9 C 17,3 C 15,7 km/h
25.05.2014 06:00 17,8 C 72 % 1017,8 hPa 0,0 l/m 6,6 km/h N 12,7 C 17,5 C 20,1 km/h
25.05.2014 07:00 17,9 C 70 % 1018,2 hPa 0,0 l/m 6,9 km/h N 12,3 C 17,6 C 19,3 km/h
25.05.2014 08:00 18,7 C 71 % 1018,5 hPa 0,0 l/m 5,4 km/h N 13,2 C 18,7 C 17,3 km/h
25.05.2014 09:00 19,9 C 67 % 1018,6 hPa 0,0 l/m 6,1 km/h N 13,6 C 19,9 C 17,7 km/h
25.05.2014 10:00 20,0 C 68 % 1018,7 hPa 0,0 l/m 6,2 km/h N 14,0 C 19,9 C 18,1 km/h
25.05.2014 11:00 21,8 C 62 % 1018,7 hPa 0,0 l/m 5,5 km/h N 14,2 C 21,7 C 18,1 km/h
25.05.2014 12:00 22,5 C 61 % 1018,5 hPa 0,0 l/m 4,0 km/h N 14,7 C 22,5 C 13,7 km/h
25.05.2014 13:00 23,5 C 59 % 1017,8 hPa 0,0 l/m 4,2 km/h N 14,9 C 23,5 C 13,7 km/h
25.05.2014 14:00 24,5 C 51 % 1016,9 hPa 0,0 l/m 4,1 km/h N 13,5 C 24,5 C 15,7 km/h
25.05.2014 15:00 24,8 C 50 % 1016,3 hPa 0,0 l/m 3,5 km/h N 13,7 C 24,8 C 12,5 km/h
25.05.2014 16:00 24,9 C 45 % 1016,0 hPa 0,0 l/m 2,1 km/h N 12,2 C 24,9 C 10,1 km/h
25.05.2014 17:00 25,7 C 49 % 1015,7 hPa 0,0 l/m 2,3 km/h N 14,1 C 25,7 C 9,7 km/h
25.05.2014 18:00 26,0 C 49 % 1015,4 hPa 0,0 l/m 1,4 km/h N 14,5 C 26,0 C 10,1 km/h
25.05.2014 19:00 25,4 C 51 % 1015,2 hPa 0,0 l/m 0,5 km/h N 14,6 C 25,4 C 4,0 km/h
25.05.2014 20:00 23,7 C 58 % 1015,5 hPa 0,0 l/m 0,2 km/h N 14,8 C 23,7 C 2,8 km/h
25.05.2014 21:00 21,1 C 65 % 1016,0 hPa 0,0 l/m 0,0 km/h N 14,1 C 21,1 C 0,8 km/h
25.05.2014 22:00 19,1 C 74 % 1016,3 hPa 0,0 l/m 0,6 km/h N 14,3 C 19,1 C 4,0 km/h
25.05.2014 23:00 18,2 C 76 % 1016,6 hPa 0,0 l/m 0,4 km/h N 13,8 C 18,2 C 2,8 km/h
Min-Datum _ 19.05.14 20.05.14 23.05.14 - 19.05.14 - 19.05.14 19.05.14 19.05.14
_ Min-Zeit 05:30 14:45 16:15 - 00:00 - 05:45 05:30 00:15
Minimum _ 7,1 C 39 % 1007,4 hPa - 0,0 km/h - 4,3 C 7,1 C 0,0 km/h
Max-Datum _ 23.05.14 19.05.14 25.05.14 24.05.14 23.05.14 - 24.05.14 23.05.14 24.05.14
_ Max-Zeit 15:00 11:45 10:45 16:00 14:45 - 18:30 15:00 15:30
Maximum _ 28,9 C 84 % 1018,9 hPa 6,2 l/m 16,2 km/h
N
- 19,0 C 28,1 C 41,8 km/h
N
Durchschnitt _ 19,5 C 68 % 1012,9 hPa #9,4 l/m 3,3 km/h N 13,1 C 19,4 C 10,6 km/h